createdAt,value
2022-11-22T00:00:35.649Z,26.47
2022-11-22T00:05:35.668Z,28.67
2022-11-22T00:10:35.635Z,27.87
2022-11-22T00:15:35.630Z,26.01
2022-11-22T00:20:35.644Z,27.46
2022-11-22T00:25:35.641Z,27.71
2022-11-22T00:30:35.677Z,27.07
2022-11-22T00:35:35.648Z,27.55
2022-11-22T00:40:35.675Z,27.39
2022-11-22T00:45:35.667Z,26.21
2022-11-22T00:50:35.651Z,26.36
2022-11-22T00:55:35.652Z,25.47
2022-11-22T01:00:35.653Z,25.88
2022-11-22T01:05:35.642Z,26.83
2022-11-22T01:10:35.678Z,24.97
2022-11-22T01:15:35.661Z,24.14
2022-11-22T01:20:35.658Z,25.2
2022-11-22T01:25:35.657Z,23.72
2022-11-22T01:30:35.686Z,23.23
2022-11-22T01:35:35.668Z,23.53
2022-11-22T01:40:35.690Z,21.42
2022-11-22T01:45:35.701Z,22.99
2022-11-22T01:50:35.663Z,20.68
2022-11-22T01:55:35.662Z,24.22
2022-11-22T02:00:35.674Z,21.3
2022-11-22T02:05:35.696Z,21.84
2022-11-22T02:10:35.671Z,19.43
2022-11-22T02:15:35.702Z,20.82
2022-11-22T02:20:35.699Z,19.4
2022-11-22T02:25:35.716Z,19.58
2022-11-22T02:30:35.712Z,19.31
2022-11-22T02:35:35.683Z,18.43
2022-11-22T02:40:35.683Z,17.93
2022-11-22T02:45:35.712Z,16.24
2022-11-22T02:50:35.711Z,15.15
2022-11-22T02:55:35.693Z,14.8
2022-11-22T03:00:35.824Z,14.4
2022-11-22T03:05:35.691Z,13.75
2022-11-22T03:10:35.726Z,12.62
2022-11-22T03:15:35.690Z,14.76
2022-11-22T03:20:35.733Z,15.82
2022-11-22T03:25:35.770Z,13.73
2022-11-22T03:30:35.704Z,11.17
2022-11-22T03:35:35.703Z,11.66
2022-11-22T03:40:35.747Z,13.66
2022-11-22T03:45:35.701Z,16.18
2022-11-22T03:50:35.728Z,13.58
2022-11-22T03:55:35.750Z,11.72
2022-11-22T04:00:35.739Z,11.1
2022-11-22T04:05:35.748Z,11.64
2022-11-22T04:10:35.747Z,12.08
2022-11-22T04:15:35.749Z,12.38
2022-11-22T04:20:35.743Z,11.14
2022-11-22T04:25:35.722Z,10.16
2022-11-22T04:30:35.752Z,10.5
2022-11-22T04:35:35.727Z,11.1
2022-11-22T04:40:35.747Z,10.75
2022-11-22T04:45:35.712Z,13.24
2022-11-22T04:50:35.723Z,10.36
2022-11-22T04:55:35.727Z,10.25
2022-11-22T05:00:35.818Z,10.26
2022-11-22T05:05:35.735Z,10.54
2022-11-22T05:10:35.758Z,10.49
2022-11-22T05:15:35.769Z,10.49
2022-11-22T05:20:35.767Z,9.05
2022-11-22T05:25:35.766Z,9.27
2022-11-22T05:30:35.775Z,8.33
2022-11-22T05:35:35.739Z,8.64
2022-11-22T05:40:35.766Z,7.89
2022-11-22T05:45:35.788Z,7.66
2022-11-22T05:50:35.777Z,7.3
2022-11-22T05:55:35.746Z,7.61
2022-11-22T06:00:35.762Z,7.75
2022-11-22T06:05:35.749Z,7.59
2022-11-22T06:10:35.755Z,7.72
2022-11-22T06:15:35.763Z,7.41
2022-11-22T06:20:35.759Z,8.54
2022-11-22T06:25:35.755Z,8.37
2022-11-22T06:30:35.766Z,8.22
2022-11-22T06:35:35.759Z,7.98
2022-11-22T06:40:35.765Z,7.78
2022-11-22T06:45:35.771Z,7.79
2022-11-22T06:50:35.805Z,7.4
2022-11-22T06:55:49.901Z,7.24
2022-11-22T07:00:35.774Z,6.91
2022-11-22T07:05:35.771Z,6.62
2022-11-22T07:10:35.781Z,6.59
2022-11-22T07:15:35.780Z,6.14
2022-11-22T07:20:35.813Z,6.71
2022-11-22T07:25:35.807Z,6.91
2022-11-22T07:30:38.644Z,6.38
2022-11-22T07:35:35.776Z,6.55
2022-11-22T07:40:35.784Z,6.85
2022-11-22T07:45:35.839Z,7.22
2022-11-22T07:50:35.821Z,6.9
2022-11-22T07:55:35.794Z,6.52
2022-11-22T08:00:35.797Z,6.23
2022-11-22T08:05:35.796Z,6.86
2022-11-22T08:10:35.805Z,6.96
2022-11-22T08:15:35.825Z,6.57
2022-11-22T08:20:35.804Z,7.23
2022-11-22T08:25:35.789Z,7.46
2022-11-22T08:30:35.803Z,7.22
2022-11-22T08:35:35.810Z,7.24
2022-11-22T08:40:40.805Z,6.96
2022-11-22T08:45:35.841Z,7.73
2022-11-22T08:50:35.810Z,7.36
2022-11-22T08:55:35.821Z,6.87
2022-11-22T09:00:35.810Z,6.97
2022-11-22T09:05:36.316Z,7.43
2022-11-22T09:10:35.842Z,7.24
2022-11-22T09:15:35.849Z,7.58
2022-11-22T09:20:35.842Z,6.93
2022-11-22T09:25:35.868Z,6.32
2022-11-22T09:30:35.830Z,6.99
2022-11-22T09:35:35.829Z,6.13
2022-11-22T09:40:35.833Z,6.48
2022-11-22T09:45:35.830Z,5.34
2022-11-22T09:50:35.848Z,6.22
2022-11-22T09:55:35.831Z,4.83
2022-11-22T10:00:35.943Z,5.87
2022-11-22T10:05:35.878Z,5.88
2022-11-22T10:10:35.837Z,5.2
2022-11-22T10:15:35.843Z,4.76
2022-11-22T10:20:35.889Z,5.28
2022-11-22T10:25:35.836Z,5.29
2022-11-22T10:30:35.848Z,5.21
2022-11-22T10:35:35.895Z,5.23
2022-11-22T10:40:35.888Z,4.61
2022-11-22T10:45:35.892Z,4.7
2022-11-22T10:50:35.867Z,4.19
2022-11-22T10:55:35.854Z,3.95
2022-11-22T11:00:35.862Z,4.39
2022-11-22T11:05:37.291Z,4.29
2022-11-22T11:10:35.925Z,4.15
2022-11-22T11:15:35.912Z,3.99
2022-11-22T11:20:35.866Z,3.51
2022-11-22T11:25:35.893Z,3.75
2022-11-22T11:30:35.901Z,3.85
2022-11-22T11:35:35.880Z,3.48
2022-11-22T11:40:35.935Z,3.73
2022-11-22T11:45:35.903Z,3.09
2022-11-22T11:50:35.880Z,3.65
2022-11-22T11:55:35.919Z,3.5
2022-11-22T12:00:35.884Z,3.83
2022-11-22T12:05:35.894Z,3.85
2022-11-22T12:10:35.927Z,3.48
2022-11-22T12:15:35.923Z,3.85
2022-11-22T12:20:36.063Z,3.08
2022-11-22T12:25:36.346Z,3.63
2022-11-22T12:30:35.927Z,2.93
2022-11-22T12:35:35.923Z,2.88
2022-11-22T12:40:35.966Z,3.16
2022-11-22T12:45:35.962Z,2.9
2022-11-22T12:50:35.960Z,3.25
2022-11-22T12:55:35.932Z,3.93
2022-11-22T13:00:35.937Z,3.07
2022-11-22T13:05:35.973Z,2.7
2022-11-22T13:10:35.982Z,2.23
2022-11-22T13:15:35.971Z,2.26
2022-11-22T13:20:41.388Z,2.6
2022-11-22T13:25:35.945Z,2.99
2022-11-22T13:30:35.965Z,2.63
2022-11-22T13:35:35.955Z,2.48
2022-11-22T13:40:35.962Z,2.1
2022-11-22T13:45:35.982Z,2.05
2022-11-22T13:50:36.022Z,2.09
2022-11-22T13:55:41.661Z,2.21
2022-11-22T14:00:35.962Z,2.31
2022-11-22T14:05:41.199Z,2.11
2022-11-22T14:10:35.974Z,2.47
2022-11-22T14:15:36.017Z,2.58
2022-11-22T14:20:36.023Z,2.9
2022-11-22T14:25:35.971Z,3.68
2022-11-22T14:30:36.031Z,4.61
2022-11-22T14:35:36.005Z,4.57
2022-11-22T14:40:35.977Z,4.6
2022-11-22T14:45:35.988Z,4.83
2022-11-22T14:50:35.990Z,4.01
2022-11-22T14:55:36.013Z,4.71
2022-11-22T15:00:35.998Z,8.79
2022-11-22T15:09:09.449Z,29.38
2022-11-22T15:10:36.036Z,34.61
2022-11-22T16:00:36.059Z,12.44
2022-11-22T16:06:04.896Z,12.42
2022-11-22T16:10:36.045Z,19.12
2022-11-22T16:15:36.229Z,21.58
2022-11-22T16:20:36.056Z,21.73
2022-11-22T16:25:36.043Z,19.17
2022-11-22T16:30:36.015Z,16.88
2022-11-22T16:35:36.023Z,22.79
2022-11-22T16:40:36.013Z,16.01
2022-11-22T16:45:36.021Z,17.94
2022-11-22T16:50:36.030Z,16.47
2022-11-22T16:55:36.030Z,14.19
2022-11-22T17:00:36.114Z,12.55
2022-11-22T17:05:36.036Z,13.45
2022-11-22T17:10:36.028Z,12.9
2022-11-22T17:15:36.076Z,30.64
2022-11-22T17:20:36.076Z,68.53
2022-11-22T17:25:36.031Z,22.52
2022-11-22T17:30:36.054Z,15.82
2022-11-22T17:35:37.272Z,14.72
2022-11-22T17:40:36.030Z,15.25
2022-11-22T17:45:36.091Z,19.74
2022-11-22T17:50:36.038Z,18.34
2022-11-22T17:55:54.922Z,18.37
2022-11-22T18:00:36.077Z,19.73
2022-11-22T18:05:36.043Z,47.73
2022-11-22T18:10:36.055Z,40.45
2022-11-22T18:15:36.048Z,57.21
2022-11-22T18:20:36.099Z,53.15
2022-11-22T18:25:36.059Z,44.33
2022-11-22T18:30:36.084Z,37.14
2022-11-22T18:35:36.095Z,25.35
2022-11-22T18:40:36.058Z,21.97
2022-11-22T18:45:36.065Z,17.7
2022-11-22T18:55:36.102Z,47.47
2022-11-22T19:00:36.060Z,44.83
2022-11-22T19:05:36.063Z,59.07
2022-11-22T19:10:36.099Z,78.87
2022-11-22T19:15:36.076Z,69.99
2022-11-22T19:20:54.452Z,123.73
2022-11-22T19:25:36.092Z,189.34
2022-11-22T19:30:39.860Z,75.36
2022-11-22T19:35:36.084Z,41.8
2022-11-22T19:40:36.124Z,28.42
2022-11-22T19:45:36.081Z,33.6
2022-11-22T19:50:36.121Z,67.78
2022-11-22T19:55:36.085Z,94.91
2022-11-22T20:00:36.128Z,87.5
2022-11-22T20:05:36.122Z,47.6
2022-11-22T20:10:36.113Z,75.13
2022-11-22T20:15:36.118Z,85.08
2022-11-22T20:20:36.087Z,91.46
2022-11-22T20:25:36.133Z,58.71
2022-11-22T20:30:36.100Z,42.12
2022-11-22T20:35:36.125Z,41.69
2022-11-22T20:40:36.091Z,42.85
2022-11-22T20:45:36.135Z,46.04
2022-11-22T20:50:36.133Z,76.09
2022-11-22T20:55:36.142Z,53.42
2022-11-22T21:00:36.096Z,49.84
2022-11-22T21:05:36.105Z,51.2
2022-11-22T21:10:36.128Z,50.47
2022-11-22T21:15:36.138Z,53.24
2022-11-22T21:20:36.119Z,60.59
2022-11-22T21:25:36.111Z,54.96
2022-11-22T21:30:36.112Z,58
2022-11-22T21:35:36.111Z,52.87
2022-11-22T21:40:36.106Z,51.31
2022-11-22T21:45:36.118Z,50.33
2022-11-22T21:50:36.123Z,52.78
2022-11-22T21:55:36.118Z,53.88
2022-11-22T22:00:36.149Z,50.96
2022-11-22T22:05:36.119Z,51.33
2022-11-22T22:10:36.151Z,54.3
2022-11-22T22:15:36.159Z,51.56
2022-11-22T22:20:36.125Z,47.97
2022-11-22T22:25:36.130Z,48.21
2022-11-22T22:30:36.163Z,45.98
2022-11-22T22:35:36.129Z,42.73
2022-11-22T22:40:36.162Z,40.13
2022-11-22T22:45:36.134Z,47.08
2022-11-22T22:50:36.164Z,42.06
2022-11-22T22:55:36.168Z,34.86
2022-11-22T23:00:36.138Z,27.17
2022-11-22T23:05:36.187Z,36.56
2022-11-22T23:10:36.147Z,29.15
2022-11-22T23:15:56.707Z,21.69
2022-11-22T23:20:36.142Z,22.75
2022-11-22T23:25:36.167Z,26.15
2022-11-22T23:30:36.144Z,24.34
2022-11-22T23:35:36.185Z,24.13
2022-11-22T23:40:36.151Z,25.43
2022-11-22T23:45:36.146Z,23.55
2022-11-22T23:50:37.394Z,26.53
2022-11-22T23:55:36.148Z,26.25
